createdAt,value
2019-05-21T00:01:25.432Z,7.5
2019-05-21T00:11:25.195Z,7.6
2019-05-21T00:21:27.207Z,7.9
2019-05-21T00:31:25.843Z,7.7
2019-05-21T00:41:28.154Z,7.7
2019-05-21T00:51:24.994Z,8.2
2019-05-21T01:01:27.014Z,8.1
2019-05-21T01:11:26.845Z,7.6
2019-05-21T01:21:25.657Z,8.9
2019-05-21T01:31:26.025Z,8.7
2019-05-21T01:41:26.223Z,8.2
2019-05-21T01:51:24.863Z,8.7
2019-05-21T02:01:27.215Z,9.4
2019-05-21T02:11:25.271Z,9.3
2019-05-21T02:21:27.535Z,8.9
2019-05-21T02:31:26.292Z,8.7
2019-05-21T02:41:26.586Z,8.7
2019-05-21T02:51:25.609Z,8.9
2019-05-21T03:01:26.275Z,9.2
2019-05-21T03:11:25.415Z,8.8
2019-05-21T03:21:26.710Z,9.5
2019-05-21T03:31:26.516Z,8.4
2019-05-21T03:41:25.265Z,10.1
2019-05-21T03:51:26.966Z,8.4
2019-05-21T04:01:26.906Z,8.7
2019-05-21T04:11:27.527Z,8.4
2019-05-21T04:21:25.425Z,9.1
2019-05-21T04:31:26.406Z,7.6
2019-05-21T04:41:27.392Z,7.1
2019-05-21T04:51:27.181Z,7.1
2019-05-21T05:01:26.395Z,6.2
2019-05-21T05:11:26.262Z,7.1
2019-05-21T05:21:26.230Z,6.8
2019-05-21T05:31:28.028Z,7.4
2019-05-21T05:41:26.804Z,7.3
2019-05-21T05:51:26.550Z,7.3
2019-05-21T06:01:26.629Z,7.3
2019-05-21T06:11:26.812Z,7.7
2019-05-21T06:21:27.649Z,6.7
2019-05-21T06:31:26.465Z,7.3
2019-05-21T06:41:27.588Z,6.2
2019-05-21T06:51:25.546Z,6.8
2019-05-21T07:01:28.458Z,7.4
2019-05-21T07:11:26.030Z,6.9
2019-05-21T07:21:26.881Z,7.0
2019-05-21T07:31:26.472Z,7.1
2019-05-21T07:41:25.743Z,6.6
2019-05-21T07:51:25.594Z,6.3
2019-05-21T08:01:26.602Z,5.9
2019-05-21T08:11:26.245Z,4.7
2019-05-21T08:21:31.488Z,5.5
2019-05-21T08:31:26.405Z,5.5
2019-05-21T08:41:30.947Z,5.8
2019-05-21T08:51:26.593Z,4.4
2019-05-21T09:01:25.876Z,4.5
2019-05-21T09:11:26.443Z,4.2
2019-05-21T09:21:26.150Z,3.2
2019-05-21T09:31:26.375Z,3.3
2019-05-21T09:41:25.418Z,2.5
2019-05-21T09:51:27.671Z,2.9
2019-05-21T10:01:24.964Z,2.2
2019-05-21T10:11:26.247Z,2.4
2019-05-21T10:21:26.297Z,2.2
2019-05-21T10:31:25.869Z,5.1
2019-05-21T10:41:27.540Z,4.6
2019-05-21T10:51:25.150Z,4.3
2019-05-21T11:01:27.606Z,4.0
2019-05-21T11:11:25.404Z,4.4
2019-05-21T11:21:28.366Z,4.0
2019-05-21T11:31:26.396Z,3.7
2019-05-21T11:41:24.924Z,2.8
2019-05-21T11:51:27.381Z,3.8
2019-05-21T12:01:28.697Z,3.6
2019-05-21T12:11:28.256Z,3.7
2019-05-21T12:21:28.110Z,3.4
2019-05-21T12:31:25.872Z,3.8
2019-05-21T12:41:27.971Z,3.6
2019-05-21T12:51:27.172Z,4.7
2019-05-21T13:01:26.033Z,5.1
2019-05-21T13:11:28.348Z,6.0
2019-05-21T13:21:27.483Z,6.2
2019-05-21T13:31:25.723Z,7.0
2019-05-21T13:41:27.143Z,6.9
2019-05-21T13:51:27.805Z,7.1
2019-05-21T14:01:39.832Z,8.5
2019-05-21T14:11:27.631Z,9.0
2019-05-21T14:21:26.072Z,8.5
2019-05-21T14:31:31.303Z,8.4
2019-05-21T14:41:25.460Z,6.6
2019-05-21T14:51:26.477Z,5.4
2019-05-21T15:01:28.007Z,6.4
2019-05-21T15:11:26.312Z,7.2
2019-05-21T15:21:26.601Z,7.3
2019-05-21T15:31:26.806Z,6.9
2019-05-21T15:41:27.598Z,8.0
2019-05-21T15:51:26.482Z,7.2
2019-05-21T16:01:26.349Z,8.7
2019-05-21T16:11:28.337Z,7.6
2019-05-21T16:21:24.805Z,6.8
2019-05-21T16:31:27.231Z,5.3
2019-05-21T16:41:26.398Z,5.5
2019-05-21T16:51:27.965Z,5.8
2019-05-21T17:01:27.220Z,5.2
2019-05-21T17:11:25.604Z,4.4
2019-05-21T17:21:26.651Z,5.1
2019-05-21T17:31:26.703Z,4.7
2019-05-21T17:41:26.397Z,4.6
2019-05-21T17:51:26.595Z,5.0
2019-05-21T18:01:26.835Z,5.0
2019-05-21T18:11:27.616Z,5.1
2019-05-21T18:21:27.197Z,5.2
2019-05-21T18:31:26.468Z,5.8
2019-05-21T18:41:31.776Z,5.5
2019-05-21T18:51:27.211Z,6.1
2019-05-21T19:01:26.477Z,5.6
2019-05-21T19:11:26.901Z,5.2
2019-05-21T19:21:25.780Z,5.2
2019-05-21T19:31:25.480Z,4.5
2019-05-21T19:41:25.571Z,4.6
2019-05-21T19:51:26.882Z,4.2
2019-05-21T20:01:26.609Z,3.5
2019-05-21T20:11:26.834Z,3.4
2019-05-21T20:21:26.812Z,4.0
2019-05-21T20:31:26.286Z,5.0
2019-05-21T20:41:26.772Z,4.6
2019-05-21T20:51:26.672Z,4.9
2019-05-21T21:01:26.359Z,5.0
2019-05-21T21:11:28.267Z,4.6
2019-05-21T21:21:26.380Z,4.0
2019-05-21T21:31:26.980Z,3.0
2019-05-21T21:41:28.090Z,3.5
2019-05-21T21:51:25.966Z,3.4
2019-05-21T22:01:28.654Z,3.1
2019-05-21T22:11:27.379Z,2.9
2019-05-21T22:21:27.640Z,2.5
2019-05-21T22:31:26.803Z,2.7
2019-05-21T22:41:26.792Z,2.7
2019-05-21T22:51:26.038Z,2.5
2019-05-21T23:01:26.769Z,2.6
2019-05-21T23:11:26.282Z,2.6
2019-05-21T23:21:26.053Z,2.0
2019-05-21T23:31:26.696Z,2.4
2019-05-21T23:41:26.789Z,2.4
2019-05-21T23:51:26.960Z,2.5
